Historyczne dane pomiarowe

Dodano dane terminowe – wersja testowa.

Dane z okresu 1951-2019

Wersja bazy: 1.34 [2019-03-16, lista zmian], aktualizacja planowana na 2019-04-15

Dane meteo z obszaru Polski uzyskane na podstawie danych udostępnionych przez Instytut Meteorologii i Gospodarki Wodnej – Państwowy Instytut Badawczy.

 

Wybierz Datę:    

       

TemperaturaWilgotnośćWiatrCiśnienieOpadyŚniegCzas trwania zjawisk
 Stacja t tx tn tng RH VA  wxwx mslp ppp RRR   cm mm wxwxwxwxwxwxwx
1983-08-14 13.3 17.2 11.0- 74.8- 4.3 5.0---- 0.0------------
1983-08-13 13.6 20.0 11.5- 89.0- 6.3 3.3---- 6.9------------
1983-08-12 17.6 22.0 14.9- 88.8- 6.3 1.3---- 1.7------------
1983-08-11 16.9 20.5 13.8- 95.5- 7.0 1.3---- 21.9------------
1983-08-10 16.1 23.2 11.5- 94.3- 5.3 0.0---- 14.5------------
1983-08-09 17.0 23.5 11.8- 90.3- 7.3 2.7---- 7.6------------
1983-08-08 16.3 21.8 12.5- 89.5- 7.3 1.3---- 2.9------------
1983-08-07 16.5 21.5 13.5- 91.5- 7.3 0.0---- 11.7------------
1983-08-06 12.5 18.6 5.1- 85.8- 6.3 2.0---- 0.3------------
1983-08-05 12.9 15.8 10.5- 80.8- 7.3 1.3---- 0.0------------
1983-08-04 13.5 22.5 11.8- 92.3- 8.0 3.3---- 3.1------------
1983-08-03 20.2 25.4 15.1- 79.8- 5.3 2.7---- 6.4------------
1983-08-02 19.4 29.0 10.0- 75.3- 3.0 2.7---- 0.0------------
1983-08-01 16.0 23.5 7.1- 74.3- 0.0 6.7---- 0.0------------
1983-07-31 16.2 21.8 11.4- 76.3- 2.7 1.3---- 0.0------------
1983-07-30 15.7 20.5 10.5- 87.8- 6.7 7.3---- 0.3------------
1983-07-29 18.8 23.5 13.0- 76.3- 1.0 4.0---- 0.0------------
1983-07-28 19.8 26.2 15.1- 86.0- 5.3 4.3---- 0.0------------
1983-07-27 21.7 27.8 14.5- 81.5- 2.7 2.0---- 1.1------------
1983-07-26 18.6 24.5 14.8- 81.8- 5.3 4.7---- 0.7------------
1983-07-25 14.4 19.0 10.6- 88.3- 6.3 3.7---- 0.5------------
1983-07-24 14.6 19.0 12.6- 94.5- 7.7 2.7---- 9.6------------
1983-07-23 14.2 18.0 11.0- 89.3- 7.3 5.3---- 14.5------------
1983-07-22 12.6 15.0 10.5- 77.3- 8.0 10.7---- 8.6------------
1983-07-21 11.8 15.5 8.6- 77.8- 6.3 11.3---- 0.9------------
1983-07-20 17.4 24.4 13.0- 84.5- 6.7 5.7---- 1.5------------
1983-07-19 20.9 29.2 11.4- 76.3- 2.3 3.3---- 1.6------------
1983-07-18 19.4 26.8 11.0- 77.3- 2.7 1.3---- 0.0------------
1983-07-17 19.4 25.5 13.0- 80.3- 5.3 3.3---- 0.0------------
1983-07-16 17.9 26.5 8.5- 75.3- 1.3 1.3---- 0.0------------
1983-07-15 18.8 23.0 16.3- 75.5- 3.7 4.0---- 0.0------------
1983-07-14 17.2 20.0 15.1- 90.5- 6.7 3.3---- 6.7------------
1983-07-13 16.7 19.0 15.1- 90.8- 6.3 4.0---- 20.5------------
1983-07-12 16.5 20.0 13.8- 93.5- 6.7 3.3---- 18.7------------
1983-07-11 17.3 20.5 14.4- 89.3- 6.3 2.0---- 4.0------------
1983-07-10 19.0 24.8 12.5- 76.8- 3.0 3.3---- 3.3------------
1983-07-09 18.4 26.8 10.5- 76.5- 2.3 1.3---- 0.0------------
1983-07-08 17.6 24.6 8.6- 67.8- 1.3 1.3---- 0.0------------
1983-07-07 18.4 25.2 10.5- 71.3- 0.7 2.0---- 0.0------------
1983-07-06 19.0 25.5 10.6- 72.8- 0.0 1.3---- 0.0------------
1983-07-05 18.4 25.6 9.3- 72.0- 2.0 2.0---- 0.0------------
1983-07-04 17.0 24.0 8.5- 76.8- 2.3 1.0---- 0.0------------
1983-07-03 18.2 22.5 14.8- 76.5- 4.3 2.3---- 0.0------------
1983-07-02 16.5 22.2 13.2- 95.0- 5.3 0.7---- 11.4------------
1983-07-01 18.1 25.0 9.5- 80.3- 3.3 0.7---- 0.0------------
1983-06-30 14.0 20.0 6.1- 80.0- 3.3 5.7---- 0.0------------
1983-06-29 14.8 18.2 12.5- 76.3- 6.0 3.7---- 0.0------------
1983-06-28 17.4 22.5 15.7- 87.5- 7.7 5.0---- 8.6------------
1983-06-27 20.0 26.5 11.5- 71.3- 3.0 4.7---- 0.7------------
1983-06-26 17.5 21.6 15.1- 78.0- 7.3 2.0---- 1.4------------
1983-06-25 19.4 25.0 12.0- 60.8- 1.0 7.0---- 0.0------------
1983-06-24 14.9 24.2 3.7- 68.3- 0.3 4.3---- 0.0------------
1983-06-23 12.1 18.5 3.1- 65.5- 0.0 6.0---- 0.0------------
1983-06-22 13.5 20.0 10.8- 60.8- 0.3 8.0---- 0.0------------
1983-06-21 18.4 23.5 13.0- 78.3- 3.3 2.7---- 0.0------------
1983-06-20 17.4 21.8 15.1- 92.3- 7.3 3.3---- 2.6------------
1983-06-19 17.1 22.0 12.0- 88.3- 7.3 8.0---- 15.5------------
1983-06-18 11.8 12.5 11.2- 98.0- 8.0 6.0---- 54.7------------
1983-06-17 11.8 14.0 9.4- 81.5- 7.7 6.0---- 14.4------------
1983-06-16 11.5 15.6 10.5- 96.5- 8.0 4.0---- 5.2------------
333.4 ms

 

Źródłem pochodzenia danych jest Instytut Meteorologii i Gospodarki Wodnej – Państwowy Instytut Badawczy. Dane Instytutu Meteorologii i Gospodarki Wodnej – Państwowego Instytutu Badawczego zostały przetworzone.

Dane źródłowe można odnaleźć na stronie https://dane.imgw.pl